sensor_id;sensor_type;location;lat;lon;timestamp;P1;durP1;ratioP1;P2;durP2;ratioP2
67456;SDS011;54319;52.038;4.640;2022-12-26T00:01:55;40.65;;;16.50;;
67456;SDS011;54319;52.038;4.640;2022-12-26T00:04:25;44.40;;;16.80;;
67456;SDS011;54319;52.038;4.640;2022-12-26T00:06:52;43.00;;;16.80;;
67456;SDS011;54319;52.038;4.640;2022-12-26T00:09:19;46.00;;;17.38;;
67456;SDS011;54319;52.038;4.640;2022-12-26T00:11:46;46.88;;;18.17;;
67456;SDS011;54319;52.038;4.640;2022-12-26T00:14:13;44.38;;;17.25;;
67456;SDS011;54319;52.038;4.640;2022-12-26T00:16:41;46.47;;;18.48;;
67456;SDS011;54319;52.038;4.640;2022-12-26T00:19:11;46.92;;;18.35;;
67456;SDS011;54319;52.038;4.640;2022-12-26T00:21:40;49.47;;;18.45;;
67456;SDS011;54319;52.038;4.640;2022-12-26T00:24:08;48.45;;;18.40;;
67456;SDS011;54319;52.038;4.640;2022-12-26T00:26:37;48.40;;;19.38;;
67456;SDS011;54319;52.038;4.640;2022-12-26T00:29:04;41.17;;;17.63;;
67456;SDS011;54319;52.038;4.640;2022-12-26T00:31:32;47.55;;;19.10;;
67456;SDS011;54319;52.038;4.640;2022-12-26T00:34:00;47.80;;;18.67;;
67456;SDS011;54319;52.038;4.640;2022-12-26T00:36:28;49.85;;;19.40;;
67456;SDS011;54319;52.038;4.640;2022-12-26T00:38:59;49.13;;;19.35;;
67456;SDS011;54319;52.038;4.640;2022-12-26T00:41:27;49.28;;;19.40;;
67456;SDS011;54319;52.038;4.640;2022-12-26T00:43:55;48.78;;;19.80;;
67456;SDS011;54319;52.038;4.640;2022-12-26T00:46:22;49.55;;;19.40;;
67456;SDS011;54319;52.038;4.640;2022-12-26T00:48:49;39.92;;;18.52;;
67456;SDS011;54319;52.038;4.640;2022-12-26T00:51:16;58.58;;;20.13;;
67456;SDS011;54319;52.038;4.640;2022-12-26T00:53:44;42.67;;;18.42;;
67456;SDS011;54319;52.038;4.640;2022-12-26T00:56:13;40.20;;;17.80;;
67456;SDS011;54319;52.038;4.640;2022-12-26T00:58:40;41.88;;;17.60;;
67456;SDS011;54319;52.038;4.640;2022-12-26T01:01:08;40.75;;;17.33;;
67456;SDS011;54319;52.038;4.640;2022-12-26T01:03:38;39.53;;;17.20;;
67456;SDS011;54319;52.038;4.640;2022-12-26T01:06:05;36.25;;;16.92;;
67456;SDS011;54319;52.038;4.640;2022-12-26T01:08:33;36.65;;;16.98;;
67456;SDS011;54319;52.038;4.640;2022-12-26T01:11:03;36.78;;;17.63;;
67456;SDS011;54319;52.038;4.640;2022-12-26T01:13:34;42.22;;;18.45;;
67456;SDS011;54319;52.038;4.640;2022-12-26T01:16:01;40.55;;;17.50;;
67456;SDS011;54319;52.038;4.640;2022-12-26T01:20:59;42.05;;;18.15;;
67456;SDS011;54319;52.038;4.640;2022-12-26T01:23:28;41.50;;;17.88;;
67456;SDS011;54319;52.038;4.640;2022-12-26T01:25:55;41.03;;;19.00;;
67456;SDS011;54319;52.038;4.640;2022-12-26T01:28:22;43.42;;;19.27;;
67456;SDS011;54319;52.038;4.640;2022-12-26T01:30:50;44.92;;;19.95;;
67456;SDS011;54319;52.038;4.640;2022-12-26T01:33:19;37.85;;;17.73;;
67456;SDS011;54319;52.038;4.640;2022-12-26T01:35:50;41.63;;;17.80;;
67456;SDS011;54319;52.038;4.640;2022-12-26T01:38:18;41.83;;;18.17;;
67456;SDS011;54319;52.038;4.640;2022-12-26T01:40:45;43.17;;;18.20;;
67456;SDS011;54319;52.038;4.640;2022-12-26T01:43:13;33.97;;;15.90;;
67456;SDS011;54319;52.038;4.640;2022-12-26T01:45:41;35.17;;;16.90;;
67456;SDS011;54319;52.038;4.640;2022-12-26T01:48:17;33.33;;;16.40;;
67456;SDS011;54319;52.038;4.640;2022-12-26T01:50:47;34.90;;;16.75;;
67456;SDS011;54319;52.038;4.640;2022-12-26T01:53:23;37.58;;;16.92;;
67456;SDS011;54319;52.038;4.640;2022-12-26T01:55:54;36.25;;;15.90;;
67456;SDS011;54319;52.038;4.640;2022-12-26T01:58:26;33.50;;;16.52;;
67456;SDS011;54319;52.038;4.640;2022-12-26T02:00:59;33.35;;;16.10;;
67456;SDS011;54319;52.038;4.640;2022-12-26T02:03:29;35.13;;;17.00;;
67456;SDS011;54319;52.038;4.640;2022-12-26T02:06:13;33.92;;;16.52;;
67456;SDS011;54319;52.038;4.640;2022-12-26T02:08:42;31.90;;;16.20;;
67456;SDS011;54319;52.038;4.640;2022-12-26T02:11:11;36.55;;;16.83;;
67456;SDS011;54319;52.038;4.640;2022-12-26T02:13:43;32.15;;;16.25;;
67456;SDS011;54319;52.038;4.640;2022-12-26T02:16:11;39.65;;;16.20;;
67456;SDS011;54319;52.038;4.640;2022-12-26T02:18:43;32.75;;;16.58;;
67456;SDS011;54319;52.038;4.640;2022-12-26T02:21:15;35.45;;;17.17;;
67456;SDS011;54319;52.038;4.640;2022-12-26T02:24:15;30.15;;;16.02;;
67456;SDS011;54319;52.038;4.640;2022-12-26T02:27:03;31.73;;;15.38;;
67456;SDS011;54319;52.038;4.640;2022-12-26T02:32:57;30.23;;;16.05;;
67456;SDS011;54319;52.038;4.640;2022-12-26T02:35:43;30.20;;;15.52;;
67456;SDS011;54319;52.038;4.640;2022-12-26T02:38:25;31.10;;;16.48;;
67456;SDS011;54319;52.038;4.640;2022-12-26T02:41:02;32.38;;;15.65;;
67456;SDS011;54319;52.038;4.640;2022-12-26T02:43:45;28.33;;;16.75;;
67456;SDS011;54319;52.038;4.640;2022-12-26T02:46:23;30.40;;;16.17;;
67456;SDS011;54319;52.038;4.640;2022-12-26T02:49:24;26.63;;;14.90;;
67456;SDS011;54319;52.038;4.640;2022-12-26T02:52:18;27.70;;;15.90;;
67456;SDS011;54319;52.038;4.640;2022-12-26T02:55:11;28.77;;;16.08;;
67456;SDS011;54319;52.038;4.640;2022-12-26T02:58:00;28.75;;;14.95;;
67456;SDS011;54319;52.038;4.640;2022-12-26T03:00:47;30.58;;;15.70;;
67456;SDS011;54319;52.038;4.640;2022-12-26T03:03:44;27.55;;;14.88;;
67456;SDS011;54319;52.038;4.640;2022-12-26T03:06:35;25.48;;;13.88;;
67456;SDS011;54319;52.038;4.640;2022-12-26T03:09:23;30.05;;;15.25;;
67456;SDS011;54319;52.038;4.640;2022-12-26T03:12:30;27.58;;;14.20;;
67456;SDS011;54319;52.038;4.640;2022-12-26T03:15:19;25.42;;;14.38;;
67456;SDS011;54319;52.038;4.640;2022-12-26T03:17:51;27.27;;;14.75;;
67456;SDS011;54319;52.038;4.640;2022-12-26T03:20:24;27.42;;;14.23;;
67456;SDS011;54319;52.038;4.640;2022-12-26T03:22:56;29.42;;;14.30;;
67456;SDS011;54319;52.038;4.640;2022-12-26T03:25:29;24.95;;;13.73;;
67456;SDS011;54319;52.038;4.640;2022-12-26T03:28:22;22.90;;;13.55;;
67456;SDS011;54319;52.038;4.640;2022-12-26T03:30:50;24.98;;;14.02;;
67456;SDS011;54319;52.038;4.640;2022-12-26T03:33:17;25.30;;;13.10;;
67456;SDS011;54319;52.038;4.640;2022-12-26T03:36:05;21.40;;;13.70;;
67456;SDS011;54319;52.038;4.640;2022-12-26T03:38:41;21.98;;;13.20;;
67456;SDS011;54319;52.038;4.640;2022-12-26T03:41:22;25.83;;;12.73;;
67456;SDS011;54319;52.038;4.640;2022-12-26T03:44:15;20.38;;;11.50;;
67456;SDS011;54319;52.038;4.640;2022-12-26T03:47:06;21.13;;;11.32;;
67456;SDS011;54319;52.038;4.640;2022-12-26T03:50:00;20.52;;;10.95;;
67456;SDS011;54319;52.038;4.640;2022-12-26T03:52:51;18.83;;;10.15;;
67456;SDS011;54319;52.038;4.640;2022-12-26T03:55:44;17.38;;;10.43;;
67456;SDS011;54319;52.038;4.640;2022-12-26T03:58:37;20.38;;;9.48;;
67456;SDS011;54319;52.038;4.640;2022-12-26T04:01:25;21.65;;;9.52;;
67456;SDS011;54319;52.038;4.640;2022-12-26T04:04:13;17.92;;;9.35;;
67456;SDS011;54319;52.038;4.640;2022-12-26T04:06:59;15.40;;;8.60;;
67456;SDS011;54319;52.038;4.640;2022-12-26T04:09:50;14.05;;;8.45;;
67456;SDS011;54319;52.038;4.640;2022-12-26T04:12:42;13.57;;;8.10;;
67456;SDS011;54319;52.038;4.640;2022-12-26T04:18:17;15.82;;;8.35;;
67456;SDS011;54319;52.038;4.640;2022-12-26T04:21:08;14.30;;;8.23;;
67456;SDS011;54319;52.038;4.640;2022-12-26T04:23:56;17.40;;;8.57;;
67456;SDS011;54319;52.038;4.640;2022-12-26T04:26:45;15.38;;;8.45;;
67456;SDS011;54319;52.038;4.640;2022-12-26T04:29:35;16.80;;;8.57;;
67456;SDS011;54319;52.038;4.640;2022-12-26T04:32:21;16.63;;;7.60;;
67456;SDS011;54319;52.038;4.640;2022-12-26T04:35:14;13.18;;;7.78;;
67456;SDS011;54319;52.038;4.640;2022-12-26T04:38:04;11.23;;;7.03;;
67456;SDS011;54319;52.038;4.640;2022-12-26T04:40:51;14.70;;;7.05;;
67456;SDS011;54319;52.038;4.640;2022-12-26T04:43:40;16.60;;;7.15;;
67456;SDS011;54319;52.038;4.640;2022-12-26T04:46:26;12.65;;;6.72;;
67456;SDS011;54319;52.038;4.640;2022-12-26T04:48:56;12.07;;;5.95;;
67456;SDS011;54319;52.038;4.640;2022-12-26T04:51:41;16.63;;;6.47;;
67456;SDS011;54319;52.038;4.640;2022-12-26T04:54:09;12.50;;;6.25;;
67456;SDS011;54319;52.038;4.640;2022-12-26T04:56:36;9.18;;;5.53;;
67456;SDS011;54319;52.038;4.640;2022-12-26T04:59:03;10.48;;;5.45;;
67456;SDS011;54319;52.038;4.640;2022-12-26T05:01:31;9.40;;;5.32;;
67456;SDS011;54319;52.038;4.640;2022-12-26T05:04:16;8.20;;;4.90;;
67456;SDS011;54319;52.038;4.640;2022-12-26T05:07:02;12.18;;;5.47;;
67456;SDS011;54319;52.038;4.640;2022-12-26T05:09:50;9.18;;;4.78;;
67456;SDS011;54319;52.038;4.640;2022-12-26T05:12:19;9.15;;;4.10;;
67456;SDS011;54319;52.038;4.640;2022-12-26T05:14:46;7.50;;;4.40;;
67456;SDS011;54319;52.038;4.640;2022-12-26T05:17:17;7.03;;;3.88;;
67456;SDS011;54319;52.038;4.640;2022-12-26T05:20:01;7.25;;;3.95;;
67456;SDS011;54319;52.038;4.640;2022-12-26T05:22:45;7.18;;;4.45;;
67456;SDS011;54319;52.038;4.640;2022-12-26T05:25:34;5.40;;;3.90;;
67456;SDS011;54319;52.038;4.640;2022-12-26T05:28:23;6.07;;;3.78;;
67456;SDS011;54319;52.038;4.640;2022-12-26T05:31:08;6.70;;;3.90;;
67456;SDS011;54319;52.038;4.640;2022-12-26T05:33:37;7.10;;;4.20;;
67456;SDS011;54319;52.038;4.640;2022-12-26T05:36:22;6.70;;;3.80;;
67456;SDS011;54319;52.038;4.640;2022-12-26T05:38:50;6.57;;;4.10;;
67456;SDS011;54319;52.038;4.640;2022-12-26T05:41:17;6.65;;;3.90;;
67456;SDS011;54319;52.038;4.640;2022-12-26T05:43:45;8.85;;;4.05;;
67456;SDS011;54319;52.038;4.640;2022-12-26T05:46:15;6.60;;;3.75;;
67456;SDS011;54319;52.038;4.640;2022-12-26T05:48:43;10.38;;;4.30;;
67456;SDS011;54319;52.038;4.640;2022-12-26T05:51:09;5.60;;;3.65;;
67456;SDS011;54319;52.038;4.640;2022-12-26T05:53:36;6.05;;;3.50;;
67456;SDS011;54319;52.038;4.640;2022-12-26T05:56:03;4.18;;;3.15;;
67456;SDS011;54319;52.038;4.640;2022-12-26T05:58:32;7.32;;;3.63;;
67456;SDS011;54319;52.038;4.640;2022-12-26T06:03:32;8.98;;;4.32;;
67456;SDS011;54319;52.038;4.640;2022-12-26T06:06:00;6.72;;;4.10;;
67456;SDS011;54319;52.038;4.640;2022-12-26T06:08:28;5.32;;;3.95;;
67456;SDS011;54319;52.038;4.640;2022-12-26T06:10:57;5.10;;;3.78;;
67456;SDS011;54319;52.038;4.640;2022-12-26T06:13:24;10.00;;;4.55;;
67456;SDS011;54319;52.038;4.640;2022-12-26T06:15:51;6.13;;;4.13;;
67456;SDS011;54319;52.038;4.640;2022-12-26T06:18:17;8.15;;;5.18;;
67456;SDS011;54319;52.038;4.640;2022-12-26T06:20:44;11.07;;;5.05;;
67456;SDS011;54319;52.038;4.640;2022-12-26T06:23:13;5.90;;;4.10;;
67456;SDS011;54319;52.038;4.640;2022-12-26T06:25:40;8.90;;;4.78;;
67456;SDS011;54319;52.038;4.640;2022-12-26T06:28:07;8.40;;;4.05;;
67456;SDS011;54319;52.038;4.640;2022-12-26T06:30:33;6.93;;;4.20;;
67456;SDS011;54319;52.038;4.640;2022-12-26T06:33:00;6.85;;;5.05;;
67456;SDS011;54319;52.038;4.640;2022-12-26T06:35:27;7.90;;;3.72;;
67456;SDS011;54319;52.038;4.640;2022-12-26T06:37:54;7.85;;;4.53;;
67456;SDS011;54319;52.038;4.640;2022-12-26T06:40:24;6.82;;;4.00;;
67456;SDS011;54319;52.038;4.640;2022-12-26T06:42:53;5.53;;;3.97;;
67456;SDS011;54319;52.038;4.640;2022-12-26T06:45:20;4.85;;;3.80;;
67456;SDS011;54319;52.038;4.640;2022-12-26T06:50:14;10.07;;;4.60;;
67456;SDS011;54319;52.038;4.640;2022-12-26T06:52:41;7.50;;;3.78;;
67456;SDS011;54319;52.038;4.640;2022-12-26T06:55:08;6.25;;;3.85;;
67456;SDS011;54319;52.038;4.640;2022-12-26T06:57:37;6.03;;;3.80;;
67456;SDS011;54319;52.038;4.640;2022-12-26T07:00:04;7.57;;;3.38;;
67456;SDS011;54319;52.038;4.640;2022-12-26T07:02:33;7.38;;;3.55;;
67456;SDS011;54319;52.038;4.640;2022-12-26T07:05:00;5.35;;;3.13;;
67456;SDS011;54319;52.038;4.640;2022-12-26T07:07:26;7.60;;;3.47;;
67456;SDS011;54319;52.038;4.640;2022-12-26T07:09:53;7.68;;;2.92;;
67456;SDS011;54319;52.038;4.640;2022-12-26T07:12:20;5.97;;;3.03;;
67456;SDS011;54319;52.038;4.640;2022-12-26T07:14:49;6.87;;;3.37;;
67456;SDS011;54319;52.038;4.640;2022-12-26T07:17:15;6.47;;;3.22;;
67456;SDS011;54319;52.038;4.640;2022-12-26T07:19:42;6.40;;;3.17;;
67456;SDS011;54319;52.038;4.640;2022-12-26T07:22:09;9.25;;;3.15;;
67456;SDS011;54319;52.038;4.640;2022-12-26T07:24:36;7.68;;;3.35;;
67456;SDS011;54319;52.038;4.640;2022-12-26T07:27:03;6.72;;;3.13;;
67456;SDS011;54319;52.038;4.640;2022-12-26T07:29:30;4.38;;;2.78;;
67456;SDS011;54319;52.038;4.640;2022-12-26T07:32:00;5.82;;;2.92;;
67456;SDS011;54319;52.038;4.640;2022-12-26T07:34:27;5.47;;;2.92;;
67456;SDS011;54319;52.038;4.640;2022-12-26T07:36:55;11.45;;;3.08;;
67456;SDS011;54319;52.038;4.640;2022-12-26T07:39:21;7.25;;;2.97;;
67456;SDS011;54319;52.038;4.640;2022-12-26T07:41:49;5.43;;;3.10;;
67456;SDS011;54319;52.038;4.640;2022-12-26T07:44:22;7.75;;;3.20;;
67456;SDS011;54319;52.038;4.640;2022-12-26T07:46:49;8.43;;;2.75;;
67456;SDS011;54319;52.038;4.640;2022-12-26T07:49:17;4.78;;;2.67;;
67456;SDS011;54319;52.038;4.640;2022-12-26T07:51:44;7.82;;;2.90;;
67456;SDS011;54319;52.038;4.640;2022-12-26T07:54:11;7.03;;;3.40;;
67456;SDS011;54319;52.038;4.640;2022-12-26T07:56:38;5.38;;;3.10;;
67456;SDS011;54319;52.038;4.640;2022-12-26T07:59:05;5.07;;;3.20;;
67456;SDS011;54319;52.038;4.640;2022-12-26T08:01:32;7.10;;;3.60;;
67456;SDS011;54319;52.038;4.640;2022-12-26T08:04:00;8.30;;;3.35;;
67456;SDS011;54319;52.038;4.640;2022-12-26T08:06:28;6.10;;;3.42;;
67456;SDS011;54319;52.038;4.640;2022-12-26T08:08:55;5.63;;;3.15;;
67456;SDS011;54319;52.038;4.640;2022-12-26T08:11:22;12.23;;;3.38;;
67456;SDS011;54319;52.038;4.640;2022-12-26T08:13:58;8.48;;;3.28;;
67456;SDS011;54319;52.038;4.640;2022-12-26T08:16:25;4.68;;;2.83;;
67456;SDS011;54319;52.038;4.640;2022-12-26T08:18:52;5.63;;;3.20;;
67456;SDS011;54319;52.038;4.640;2022-12-26T08:21:20;8.68;;;3.42;;
67456;SDS011;54319;52.038;4.640;2022-12-26T08:23:49;5.20;;;3.15;;
67456;SDS011;54319;52.038;4.640;2022-12-26T08:26:16;5.10;;;3.53;;
67456;SDS011;54319;52.038;4.640;2022-12-26T08:28:47;5.53;;;2.70;;
67456;SDS011;54319;52.038;4.640;2022-12-26T08:33:41;7.78;;;3.30;;
67456;SDS011;54319;52.038;4.640;2022-12-26T08:36:09;5.77;;;2.93;;
67456;SDS011;54319;52.038;4.640;2022-12-26T08:38:37;3.17;;;2.50;;
67456;SDS011;54319;52.038;4.640;2022-12-26T08:41:06;8.65;;;2.45;;
67456;SDS011;54319;52.038;4.640;2022-12-26T08:43:34;4.88;;;2.30;;
67456;SDS011;54319;52.038;4.640;2022-12-26T08:46:04;6.53;;;1.95;;
67456;SDS011;54319;52.038;4.640;2022-12-26T08:48:32;5.10;;;1.70;;
67456;SDS011;54319;52.038;4.640;2022-12-26T08:51:02;4.78;;;1.52;;
67456;SDS011;54319;52.038;4.640;2022-12-26T08:53:31;9.98;;;1.45;;
67456;SDS011;54319;52.038;4.640;2022-12-26T08:56:00;5.30;;;1.60;;
67456;SDS011;54319;52.038;4.640;2022-12-26T08:58:29;14.05;;;1.67;;
67456;SDS011;54319;52.038;4.640;2022-12-26T09:01:04;7.57;;;1.55;;
67456;SDS011;54319;52.038;4.640;2022-12-26T09:03:33;7.22;;;2.10;;
67456;SDS011;54319;52.038;4.640;2022-12-26T09:05:59;12.68;;;1.75;;
67456;SDS011;54319;52.038;4.640;2022-12-26T09:08:27;9.25;;;1.65;;
67456;SDS011;54319;52.038;4.640;2022-12-26T09:10:54;7.72;;;1.70;;
67456;SDS011;54319;52.038;4.640;2022-12-26T09:13:21;10.40;;;1.75;;
67456;SDS011;54319;52.038;4.640;2022-12-26T09:15:49;6.88;;;2.13;;
67456;SDS011;54319;52.038;4.640;2022-12-26T09:18:16;12.27;;;2.92;;
67456;SDS011;54319;52.038;4.640;2022-12-26T09:20:43;10.48;;;2.50;;
67456;SDS011;54319;52.038;4.640;2022-12-26T09:23:11;6.13;;;1.60;;
67456;SDS011;54319;52.038;4.640;2022-12-26T09:28:08;11.43;;;2.17;;
67456;SDS011;54319;52.038;4.640;2022-12-26T09:30:35;6.47;;;1.40;;
67456;SDS011;54319;52.038;4.640;2022-12-26T09:33:04;3.75;;;1.23;;
67456;SDS011;54319;52.038;4.640;2022-12-26T09:35:32;9.75;;;1.70;;
67456;SDS011;54319;52.038;4.640;2022-12-26T09:37:59;12.65;;;2.03;;
67456;SDS011;54319;52.038;4.640;2022-12-26T09:40:27;5.13;;;1.52;;
67456;SDS011;54319;52.038;4.640;2022-12-26T09:43:05;9.82;;;1.85;;
67456;SDS011;54319;52.038;4.640;2022-12-26T09:45:48;10.27;;;1.88;;
67456;SDS011;54319;52.038;4.640;2022-12-26T09:48:27;6.18;;;1.20;;
67456;SDS011;54319;52.038;4.640;2022-12-26T09:50:58;2.45;;;1.15;;
67456;SDS011;54319;52.038;4.640;2022-12-26T09:53:28;7.75;;;1.85;;
67456;SDS011;54319;52.038;4.640;2022-12-26T09:55:59;11.30;;;3.10;;
67456;SDS011;54319;52.038;4.640;2022-12-26T09:58:30;6.82;;;1.83;;
67456;SDS011;54319;52.038;4.640;2022-12-26T10:01:00;11.95;;;1.77;;
67456;SDS011;54319;52.038;4.640;2022-12-26T10:03:34;7.22;;;1.80;;
67456;SDS011;54319;52.038;4.640;2022-12-26T10:06:09;7.78;;;2.03;;
67456;SDS011;54319;52.038;4.640;2022-12-26T10:08:45;5.97;;;1.65;;
67456;SDS011;54319;52.038;4.640;2022-12-26T10:11:36;5.50;;;1.67;;
67456;SDS011;54319;52.038;4.640;2022-12-26T10:14:15;8.38;;;1.77;;
67456;SDS011;54319;52.038;4.640;2022-12-26T10:16:51;9.80;;;1.92;;
67456;SDS011;54319;52.038;4.640;2022-12-26T10:19:28;13.13;;;2.00;;
67456;SDS011;54319;52.038;4.640;2022-12-26T10:22:05;5.65;;;1.90;;
67456;SDS011;54319;52.038;4.640;2022-12-26T10:24:39;9.80;;;1.90;;
67456;SDS011;54319;52.038;4.640;2022-12-26T10:27:09;9.55;;;1.80;;
67456;SDS011;54319;52.038;4.640;2022-12-26T10:29:40;6.35;;;1.90;;
67456;SDS011;54319;52.038;4.640;2022-12-26T10:32:11;10.15;;;2.47;;
67456;SDS011;54319;52.038;4.640;2022-12-26T10:34:42;8.95;;;2.05;;
67456;SDS011;54319;52.038;4.640;2022-12-26T10:37:14;4.72;;;1.50;;
67456;SDS011;54319;52.038;4.640;2022-12-26T10:39:50;5.78;;;1.98;;
67456;SDS011;54319;52.038;4.640;2022-12-26T10:42:22;8.50;;;1.52;;
67456;SDS011;54319;52.038;4.640;2022-12-26T10:44:51;5.93;;;1.50;;
67456;SDS011;54319;52.038;4.640;2022-12-26T10:47:23;8.50;;;1.60;;
67456;SDS011;54319;52.038;4.640;2022-12-26T10:49:54;8.02;;;1.63;;
67456;SDS011;54319;52.038;4.640;2022-12-26T10:52:25;7.53;;;1.42;;
67456;SDS011;54319;52.038;4.640;2022-12-26T10:54:56;3.65;;;1.60;;
67456;SDS011;54319;52.038;4.640;2022-12-26T10:57:26;8.82;;;1.50;;
67456;SDS011;54319;52.038;4.640;2022-12-26T10:59:54;9.68;;;1.70;;
67456;SDS011;54319;52.038;4.640;2022-12-26T11:02:23;5.47;;;1.52;;
67456;SDS011;54319;52.038;4.640;2022-12-26T11:05:00;8.60;;;2.35;;
67456;SDS011;54319;52.038;4.640;2022-12-26T11:07:31;6.07;;;1.55;;
67456;SDS011;54319;52.038;4.640;2022-12-26T11:10:00;4.45;;;1.13;;
67456;SDS011;54319;52.038;4.640;2022-12-26T11:12:32;4.70;;;1.67;;
67456;SDS011;54319;52.038;4.640;2022-12-26T11:15:05;3.47;;;1.23;;
67456;SDS011;54319;52.038;4.640;2022-12-26T11:17:44;2.13;;;1.40;;
67456;SDS011;54319;52.038;4.640;2022-12-26T11:20:29;1.88;;;1.27;;
67456;SDS011;54319;52.038;4.640;2022-12-26T11:23:11;8.07;;;1.67;;
67456;SDS011;54319;52.038;4.640;2022-12-26T11:25:48;3.10;;;1.20;;
67456;SDS011;54319;52.038;4.640;2022-12-26T11:28:23;5.32;;;1.55;;
67456;SDS011;54319;52.038;4.640;2022-12-26T11:30:54;6.80;;;1.50;;
67456;SDS011;54319;52.038;4.640;2022-12-26T11:33:24;5.13;;;1.42;;
67456;SDS011;54319;52.038;4.640;2022-12-26T11:35:56;4.50;;;1.50;;
67456;SDS011;54319;52.038;4.640;2022-12-26T11:38:31;3.70;;;1.40;;
67456;SDS011;54319;52.038;4.640;2022-12-26T11:41:09;4.45;;;1.38;;
67456;SDS011;54319;52.038;4.640;2022-12-26T11:43:58;8.88;;;1.75;;
67456;SDS011;54319;52.038;4.640;2022-12-26T11:46:35;4.40;;;1.48;;
67456;SDS011;54319;52.038;4.640;2022-12-26T11:49:04;5.03;;;1.17;;
67456;SDS011;54319;52.038;4.640;2022-12-26T11:51:38;6.97;;;1.77;;
67456;SDS011;54319;52.038;4.640;2022-12-26T11:54:11;3.55;;;1.30;;
67456;SDS011;54319;52.038;4.640;2022-12-26T11:56:45;4.72;;;1.30;;
67456;SDS011;54319;52.038;4.640;2022-12-26T11:59:16;5.88;;;1.35;;
67456;SDS011;54319;52.038;4.640;2022-12-26T12:01:45;5.43;;;1.20;;
67456;SDS011;54319;52.038;4.640;2022-12-26T12:04:13;6.80;;;1.42;;
67456;SDS011;54319;52.038;4.640;2022-12-26T12:06:55;7.13;;;1.10;;
67456;SDS011;54319;52.038;4.640;2022-12-26T12:09:30;2.92;;;1.17;;
67456;SDS011;54319;52.038;4.640;2022-12-26T12:12:09;4.20;;;1.30;;
67456;SDS011;54319;52.038;4.640;2022-12-26T12:14:45;5.47;;;1.40;;
67456;SDS011;54319;52.038;4.640;2022-12-26T12:17:26;5.15;;;0.90;;
67456;SDS011;54319;52.038;4.640;2022-12-26T12:20:02;2.22;;;1.20;;
67456;SDS011;54319;52.038;4.640;2022-12-26T12:22:51;2.60;;;1.00;;
67456;SDS011;54319;52.038;4.640;2022-12-26T12:25:38;2.40;;;1.10;;
67456;SDS011;54319;52.038;4.640;2022-12-26T12:28:20;2.67;;;1.30;;
67456;SDS011;54319;52.038;4.640;2022-12-26T12:31:03;5.28;;;1.20;;
67456;SDS011;54319;52.038;4.640;2022-12-26T12:33:40;3.90;;;1.48;;
67456;SDS011;54319;52.038;4.640;2022-12-26T12:36:15;5.60;;;1.10;;
67456;SDS011;54319;52.038;4.640;2022-12-26T12:38:52;5.55;;;1.10;;
67456;SDS011;54319;52.038;4.640;2022-12-26T12:44:26;3.53;;;0.90;;
67456;SDS011;54319;52.038;4.640;2022-12-26T12:47:02;3.38;;;1.27;;
67456;SDS011;54319;52.038;4.640;2022-12-26T12:52:41;5.95;;;1.05;;
67456;SDS011;54319;52.038;4.640;2022-12-26T12:55:27;3.35;;;1.02;;
67456;SDS011;54319;52.038;4.640;2022-12-26T12:58:08;4.05;;;1.20;;
67456;SDS011;54319;52.038;4.640;2022-12-26T13:00:43;7.70;;;1.83;;
67456;SDS011;54319;52.038;4.640;2022-12-26T13:03:17;3.30;;;0.95;;
67456;SDS011;54319;52.038;4.640;2022-12-26T13:05:53;1.30;;;0.93;;
67456;SDS011;54319;52.038;4.640;2022-12-26T13:08:28;3.42;;;1.30;;
67456;SDS011;54319;52.038;4.640;2022-12-26T13:11:02;3.75;;;0.95;;
67456;SDS011;54319;52.038;4.640;2022-12-26T13:13:36;4.18;;;1.20;;
67456;SDS011;54319;52.038;4.640;2022-12-26T13:16:07;3.80;;;0.80;;
67456;SDS011;54319;52.038;4.640;2022-12-26T13:18:39;3.25;;;0.98;;
67456;SDS011;54319;52.038;4.640;2022-12-26T13:21:13;10.00;;;1.10;;
67456;SDS011;54319;52.038;4.640;2022-12-26T13:23:43;4.22;;;1.27;;
67456;SDS011;54319;52.038;4.640;2022-12-26T13:26:33;6.22;;;1.23;;
67456;SDS011;54319;52.038;4.640;2022-12-26T13:29:05;7.60;;;1.25;;
67456;SDS011;54319;52.038;4.640;2022-12-26T13:31:37;5.43;;;1.08;;
67456;SDS011;54319;52.038;4.640;2022-12-26T13:34:07;2.78;;;0.80;;
67456;SDS011;54319;52.038;4.640;2022-12-26T13:36:40;2.50;;;1.20;;
67456;SDS011;54319;52.038;4.640;2022-12-26T13:45:37;2.00;;;1.20;;
67456;SDS011;54319;52.038;4.640;2022-12-26T13:51:50;3.25;;;1.30;;
67456;SDS011;54319;52.038;4.640;2022-12-26T13:54:26;4.82;;;1.40;;
67456;SDS011;54319;52.038;4.640;2022-12-26T14:00:06;3.35;;;1.15;;
67456;SDS011;54319;52.038;4.640;2022-12-26T14:02:44;5.20;;;1.20;;
67456;SDS011;54319;52.038;4.640;2022-12-26T14:05:21;4.57;;;1.02;;
67456;SDS011;54319;52.038;4.640;2022-12-26T14:07:55;4.15;;;1.17;;
67456;SDS011;54319;52.038;4.640;2022-12-26T14:10:27;3.47;;;1.17;;
67456;SDS011;54319;52.038;4.640;2022-12-26T14:13:06;2.05;;;0.75;;
67456;SDS011;54319;52.038;4.640;2022-12-26T14:15:56;2.28;;;1.00;;
67456;SDS011;54319;52.038;4.640;2022-12-26T14:18:33;3.13;;;1.08;;
67456;SDS011;54319;52.038;4.640;2022-12-26T14:21:18;6.13;;;1.38;;
67456;SDS011;54319;52.038;4.640;2022-12-26T14:23:58;6.28;;;1.05;;
67456;SDS011;54319;52.038;4.640;2022-12-26T14:26:37;2.67;;;1.17;;
67456;SDS011;54319;52.038;4.640;2022-12-26T14:29:16;5.32;;;1.38;;
67456;SDS011;54319;52.038;4.640;2022-12-26T14:31:54;8.70;;;2.30;;
67456;SDS011;54319;52.038;4.640;2022-12-26T14:34:48;6.32;;;1.08;;
67456;SDS011;54319;52.038;4.640;2022-12-26T14:37:28;2.70;;;1.00;;
67456;SDS011;54319;52.038;4.640;2022-12-26T14:40:07;5.85;;;1.42;;
67456;SDS011;54319;52.038;4.640;2022-12-26T14:45:48;4.57;;;1.13;;
67456;SDS011;54319;52.038;4.640;2022-12-26T15:00:23;4.95;;;1.55;;
67456;SDS011;54319;52.038;4.640;2022-12-26T15:06:00;5.47;;;1.40;;
67456;SDS011;54319;52.038;4.640;2022-12-26T15:08:56;6.60;;;2.40;;
67456;SDS011;54319;52.038;4.640;2022-12-26T15:14:56;6.35;;;1.73;;
67456;SDS011;54319;52.038;4.640;2022-12-26T15:17:40;8.95;;;2.55;;
67456;SDS011;54319;52.038;4.640;2022-12-26T15:20:19;3.97;;;1.50;;
67456;SDS011;54319;52.038;4.640;2022-12-26T15:26:22;5.80;;;1.60;;
67456;SDS011;54319;52.038;4.640;2022-12-26T15:29:16;11.13;;;1.92;;
67456;SDS011;54319;52.038;4.640;2022-12-26T15:32:03;5.53;;;1.70;;
67456;SDS011;54319;52.038;4.640;2022-12-26T15:34:47;6.40;;;2.05;;
67456;SDS011;54319;52.038;4.640;2022-12-26T15:37:54;12.93;;;1.90;;
67456;SDS011;54319;52.038;4.640;2022-12-26T15:40:30;5.43;;;1.50;;
67456;SDS011;54319;52.038;4.640;2022-12-26T15:43:20;4.13;;;1.48;;
67456;SDS011;54319;52.038;4.640;2022-12-26T15:46:00;7.43;;;1.85;;
67456;SDS011;54319;52.038;4.640;2022-12-26T15:48:38;8.38;;;1.40;;
67456;SDS011;54319;52.038;4.640;2022-12-26T15:51:17;9.20;;;2.45;;
67456;SDS011;54319;52.038;4.640;2022-12-26T15:53:57;4.00;;;1.70;;
67456;SDS011;54319;52.038;4.640;2022-12-26T15:56:50;7.32;;;2.05;;
67456;SDS011;54319;52.038;4.640;2022-12-26T15:59:32;7.38;;;1.90;;
67456;SDS011;54319;52.038;4.640;2022-12-26T16:02:10;4.05;;;1.92;;
67456;SDS011;54319;52.038;4.640;2022-12-26T16:04:40;8.35;;;1.85;;
67456;SDS011;54319;52.038;4.640;2022-12-26T16:07:19;8.63;;;1.83;;
67456;SDS011;54319;52.038;4.640;2022-12-26T16:09:54;6.82;;;2.00;;
67456;SDS011;54319;52.038;4.640;2022-12-26T16:12:25;9.25;;;1.52;;
67456;SDS011;54319;52.038;4.640;2022-12-26T16:15:00;6.60;;;1.75;;
67456;SDS011;54319;52.038;4.640;2022-12-26T16:17:40;9.75;;;1.80;;
67456;SDS011;54319;52.038;4.640;2022-12-26T16:20:15;13.63;;;2.47;;
67456;SDS011;54319;52.038;4.640;2022-12-26T16:23:04;11.57;;;2.47;;
67456;SDS011;54319;52.038;4.640;2022-12-26T16:25:30;6.40;;;2.40;;
67456;SDS011;54319;52.038;4.640;2022-12-26T16:27:58;7.22;;;2.60;;